Time;durP1;ratioP1;P1;durP2;ratioP2;P2;SDS_P1;SDS_P2;PMS_P1;PMS_P2;Temp;Humidity;BMP_temperature;BMP_pressure;BME280_temperature;BME280_humidity;BME280_pressure;Samples;Min_cycle;Max_cycle;Signal;HPM_P1;HPM_P2
2022/10/01 00:01:53;;;;;;;7.40;2.90;;;18.40;99.90;;;;;;5077359;28;20115;-52
2022/10/01 00:04:19;;;;;;;8.35;3.42;;;18.30;99.90;;;;;;5072561;28;20174;-51
2022/10/01 00:06:45;;;;;;;8.55;3.33;;;18.30;99.90;;;;;;5074312;28;20387;-52
2022/10/01 00:09:11;;;;;;;7.82;3.13;;;18.30;99.90;;;;;;5088025;28;20036;-54
2022/10/01 00:11:36;;;;;;;8.82;3.53;;;18.30;99.90;;;;;;5089373;28;20178;-53
2022/10/01 00:14:02;;;;;;;4.80;2.72;;;18.20;99.90;;;;;;5088683;28;20122;-53
2022/10/01 00:16:29;;;;;;;5.50;3.20;;;18.20;99.90;;;;;;5073538;28;20047;-51
2022/10/01 00:18:56;;;;;;;5.82;3.35;;;18.20;99.90;;;;;;5095707;28;20038;-54
2022/10/01 00:21:28;;;;;;;5.07;3.00;;;18.20;99.90;;;;;;5093613;28;20024;-53
2022/10/01 00:23:55;;;;;;;5.25;2.40;;;18.20;99.90;;;;;;5095601;28;20035;-54
2022/10/01 00:26:27;;;;;;;5.38;2.95;;;18.20;99.90;;;;;;5100893;28;20115;-53
2022/10/01 00:28:55;;;;;;;5.78;2.25;;;18.20;99.90;;;;;;5074116;28;20044;-53
2022/10/01 00:31:22;;;;;;;4.55;2.25;;;;;;;;;;5042710;28;20040;-53
2022/10/01 00:33:49;;;;;;;3.88;2.22;;;;;;;;;;5071005;28;20036;-52
2022/10/01 00:36:15;;;;;;;4.28;2.47;;;18.00;99.90;;;;;;5058106;28;20028;-53
2022/10/01 00:38:41;;;;;;;6.80;2.63;;;18.00;99.90;;;;;;5071112;28;20047;-53
2022/10/01 00:41:08;;;;;;;6.22;2.50;;;18.00;99.90;;;;;;5071003;28;20037;-52
2022/10/01 00:43:38;;;;;;;6.78;2.20;;;18.00;99.90;;;;;;5073429;28;20055;-52
2022/10/01 00:46:13;;;;;;;5.88;3.38;;;17.90;99.90;;;;;;5065980;28;20040;-53
2022/10/01 00:48:58;;;;;;;5.50;2.67;;;17.90;99.90;;;;;;5069532;28;20036;-52
2022/10/01 00:51:28;;;;;;;6.65;2.45;;;17.90;99.90;;;;;;5055649;28;20036;-53
2022/10/01 00:54:01;;;;;;;11.90;2.85;;;17.90;99.90;;;;;;5071179;28;20086;-54
2022/10/01 00:56:27;;;;;;;8.35;2.60;;;18.00;99.90;;;;;;5072639;28;20507;-51
2022/10/01 00:58:54;;;;;;;6.68;2.50;;;18.10;99.90;;;;;;5071603;28;20089;-52
2022/10/01 01:01:23;;;;;;;6.28;2.53;;;18.10;99.90;;;;;;5037885;28;20098;-51
2022/10/01 01:03:49;;;;;;;7.90;2.30;;;18.10;99.90;;;;;;5096681;28;20103;-52
2022/10/01 01:06:15;;;;;;;5.35;2.72;;;18.00;99.90;;;;;;5094600;28;20387;-52
2022/10/01 01:08:42;;;;;;;8.05;2.65;;;17.90;99.90;;;;;;5106894;28;20547;-55
2022/10/01 01:11:47;;;;;;;6.90;2.55;;;17.90;99.90;;;;;;5073854;28;20047;-53
2022/10/01 01:14:42;;;;;;;4.45;2.67;;;17.90;99.90;;;;;;5094164;28;20545;-54
2022/10/01 01:17:16;;;;;;;5.78;1.95;;;18.00;99.90;;;;;;5087239;28;20537;-54
2022/10/01 01:20:00;;;;;;;4.57;2.33;;;18.00;99.90;;;;;;5090360;28;20039;-54
2022/10/01 01:22:30;;;;;;;5.28;2.00;;;17.90;99.90;;;;;;5092748;28;20068;-53
2022/10/01 01:25:17;;;;;;;7.10;2.15;;;17.90;99.90;;;;;;5092402;28;20032;-52
2022/10/01 01:27:55;;;;;;;3.72;2.20;;;17.90;99.90;;;;;;5084144;28;20044;-52
2022/10/01 01:30:21;;;;;;;7.05;2.17;;;17.90;99.90;;;;;;5051808;28;20080;-54
2022/10/01 01:33:03;;;;;;;5.05;2.30;;;17.80;99.90;;;;;;5000271;28;20091;-52
2022/10/01 01:35:44;;;;;;;4.30;2.05;;;17.80;99.90;;;;;;5052502;28;20041;-51
2022/10/01 01:38:14;;;;;;;5.47;2.35;;;17.90;99.90;;;;;;5033048;28;20040;-52
2022/10/01 01:40:43;;;;;;;4.53;1.85;;;17.90;99.90;;;;;;5052753;28;20135;-54
2022/10/01 01:43:19;;;;;;;3.22;2.25;;;17.80;99.90;;;;;;5050753;28;20040;-53
2022/10/01 01:45:48;;;;;;;4.13;2.17;;;17.80;99.90;;;;;;5051901;28;20140;-52
2022/10/01 01:48:14;;;;;;;4.55;2.35;;;17.70;99.90;;;;;;5050994;28;20098;-53
2022/10/01 01:50:47;;;;;;;8.68;2.33;;;17.80;99.90;;;;;;5051885;28;20140;-53
2022/10/01 01:53:14;;;;;;;5.75;2.13;;;17.80;99.90;;;;;;5052304;28;20124;-53
2022/10/01 01:55:40;;;;;;;4.50;2.53;;;17.90;99.90;;;;;;5052695;28;20029;-53
2022/10/01 01:58:07;;;;;;;6.85;3.03;;;17.90;99.90;;;;;;5051617;28;20518;-53
2022/10/01 02:00:33;;;;;;;6.80;2.53;;;17.80;99.90;;;;;;5059946;28;20119;-54
2022/10/01 02:02:59;;;;;;;8.70;2.63;;;17.80;99.90;;;;;;5080388;28;20040;-53
2022/10/01 02:05:32;;;;;;;6.57;2.22;;;17.80;99.90;;;;;;5093089;28;20051;-53
2022/10/01 02:08:26;;;;;;;3.72;2.30;;;17.80;99.90;;;;;;5091349;28;20020;-52
2022/10/01 02:11:02;;;;;;;7.05;2.33;;;17.80;99.90;;;;;;5084031;28;20032;-51
2022/10/01 02:13:44;;;;;;;7.15;2.38;;;17.80;99.90;;;;;;5095387;28;20051;-52
2022/10/01 02:16:32;;;;;;;6.13;2.65;;;17.90;99.90;;;;;;5088479;28;20039;-53
2022/10/01 02:19:30;;;;;;;4.57;2.70;;;17.90;99.90;;;;;;5092034;28;20548;-53
2022/10/01 02:22:10;;;;;;;8.48;2.80;;;17.90;99.90;;;;;;5051707;28;20051;-53
2022/10/01 02:24:55;;;;;;;4.40;2.30;;;17.90;99.90;;;;;;5054189;28;20510;-53
2022/10/01 02:27:43;;;;;;;8.10;2.53;;;17.90;99.90;;;;;;5058009;28;20134;-54
2022/10/01 02:30:10;;;;;;;7.05;2.58;;;17.90;99.90;;;;;;5055780;28;20033;-52
2022/10/01 02:32:39;;;;;;;8.63;2.42;;;17.80;99.90;;;;;;5055925;28;20037;-54
2022/10/01 02:35:09;;;;;;;5.80;2.65;;;17.90;99.90;;;;;;5055218;28;20418;-53
2022/10/01 02:37:36;;;;;;;4.45;2.30;;;17.80;99.90;;;;;;5055588;28;20129;-54
2022/10/01 02:40:06;;;;;;;6.88;2.30;;;17.90;99.90;;;;;;5048610;28;20040;-53
2022/10/01 02:42:34;;;;;;;5.85;2.55;;;17.80;99.90;;;;;;5055944;28;20064;-52
2022/10/01 02:45:01;;;;;;;7.07;2.80;;;17.80;99.90;;;;;;5057216;28;20029;-54
2022/10/01 02:47:35;;;;;;;6.20;2.70;;;17.80;99.90;;;;;;5055643;28;20076;-53
2022/10/01 02:50:03;;;;;;;5.90;2.40;;;17.80;99.90;;;;;;5047987;28;20037;-53
2022/10/01 02:52:57;;;;;;;8.60;2.90;;;17.80;99.90;;;;;;5074250;28;20078;-54
2022/10/01 02:55:30;;;;;;;4.60;2.50;;;17.90;99.90;;;;;;5100284;28;20053;-54
2022/10/01 02:57:57;;;;;;;5.72;2.47;;;17.90;99.90;;;;;;5100495;28;20482;-52
2022/10/01 03:00:24;;;;;;;7.80;2.78;;;18.00;99.90;;;;;;5099098;28;20039;-53
2022/10/01 03:02:50;;;;;;;6.30;2.47;;;18.00;99.90;;;;;;5095486;28;20504;-52
2022/10/01 03:05:17;;;;;;;3.85;2.40;;;17.80;99.90;;;;;;5098199;28;20093;-54
2022/10/01 03:07:43;;;;;;;7.53;2.60;;;17.70;99.90;;;;;;5098492;28;20031;-52
2022/10/01 03:10:10;;;;;;;4.30;2.60;;;17.60;99.90;;;;;;5097301;28;20028;-53
2022/10/01 03:12:36;;;;;;;5.20;2.25;;;17.60;99.90;;;;;;5096957;28;20032;-53
2022/10/01 03:15:02;;;;;;;6.03;3.00;;;17.50;99.90;;;;;;5103487;28;20059;-53
2022/10/01 03:17:28;;;;;;;5.22;2.58;;;17.50;99.90;;;;;;5098258;28;20439;-52
2022/10/01 03:19:54;;;;;;;7.53;3.60;;;17.40;99.90;;;;;;5095999;28;20035;-52
2022/10/01 03:22:21;;;;;;;3.97;2.25;;;17.40;99.90;;;;;;5096337;28;20027;-52
2022/10/01 03:24:51;;;;;;;5.93;2.83;;;17.40;99.90;;;;;;5101946;28;20369;-52
2022/10/01 03:27:17;;;;;;;6.07;2.70;;;17.40;99.90;;;;;;5099435;28;20032;-54
2022/10/01 03:29:44;;;;;;;3.70;2.47;;;17.30;99.90;;;;;;5080913;28;20032;-51
2022/10/01 03:32:10;;;;;;;9.15;2.90;;;17.30;99.90;;;;;;5091008;28;20028;-51
2022/10/01 03:34:36;;;;;;;4.95;2.50;;;17.30;99.90;;;;;;5095966;28;20078;-52
2022/10/01 03:37:02;;;;;;;5.93;2.60;;;17.20;99.90;;;;;;5099301;28;20119;-53
2022/10/01 03:39:28;;;;;;;5.85;2.83;;;17.30;99.90;;;;;;5077219;28;20063;-55
2022/10/01 03:41:54;;;;;;;4.30;2.50;;;17.30;99.90;;;;;;5097127;28;20375;-54
2022/10/01 03:44:19;;;;;;;4.50;2.47;;;17.40;99.90;;;;;;5098762;28;20028;-53
2022/10/01 03:46:45;;;;;;;6.38;2.90;;;17.50;99.90;;;;;;5101789;28;20063;-53
2022/10/01 03:49:11;;;;;;;4.45;2.25;;;17.60;99.90;;;;;;5097818;28;20470;-53
2022/10/01 03:51:37;;;;;;;7.68;2.88;;;17.50;99.90;;;;;;5096531;28;20109;-51
2022/10/01 03:54:05;;;;;;;6.85;2.30;;;17.50;99.90;;;;;;5100342;28;20107;-51
2022/10/01 03:56:32;;;;;;;8.23;2.33;;;17.50;99.90;;;;;;5099083;28;20120;-53
2022/10/01 03:58:57;;;;;;;6.13;2.90;;;17.50;99.90;;;;;;5095653;28;20089;-53
2022/10/01 04:01:24;;;;;;;3.28;2.50;;;17.50;99.90;;;;;;5095872;28;20020;-52
2022/10/01 04:03:51;;;;;;;7.00;3.00;;;17.60;99.90;;;;;;5100194;28;20043;-53
2022/10/01 04:06:17;;;;;;;6.22;3.08;;;17.60;99.90;;;;;;5098045;28;20047;-54
2022/10/01 04:08:43;;;;;;;5.15;2.80;;;17.60;99.90;;;;;;5100545;27;20069;-51
2022/10/01 04:11:09;;;;;;;6.45;2.88;;;17.50;99.90;;;;;;5095775;28;20024;-54
2022/10/01 04:13:35;;;;;;;7.35;2.85;;;17.50;99.90;;;;;;5099582;28;20027;-52
2022/10/01 04:16:02;;;;;;;6.72;2.95;;;17.50;99.90;;;;;;5096218;28;20025;-53
2022/10/01 04:18:28;;;;;;;4.90;2.58;;;17.50;99.90;;;;;;5097648;28;20100;-54
2022/10/01 04:20:54;;;;;;;7.68;2.70;;;17.60;99.90;;;;;;5077199;28;20094;-54
2022/10/01 04:23:21;;;;;;;7.25;3.00;;;17.50;99.90;;;;;;5092572;28;21071;-53
2022/10/01 04:25:47;;;;;;;7.70;3.75;;;17.60;99.90;;;;;;5099954;28;20020;-52
2022/10/01 04:28:13;;;;;;;5.70;3.00;;;17.40;99.90;;;;;;5095130;28;20474;-53
2022/10/01 04:30:41;;;;;;;9.20;4.78;;;17.40;99.90;;;;;;5098294;28;20030;-50
2022/10/01 04:33:09;;;;;;;7.93;3.42;;;17.40;99.90;;;;;;5100605;28;20509;-52
2022/10/01 04:35:35;;;;;;;5.35;3.00;;;17.50;99.90;;;;;;5095609;28;20077;-52
2022/10/01 04:38:14;;;;;;;6.32;3.10;;;17.50;99.90;;;;;;5095648;28;20413;-53
2022/10/01 04:40:40;;;;;;;7.57;4.18;;;17.50;99.90;;;;;;5094546;28;20028;-52
2022/10/01 04:43:08;;;;;;;4.97;2.60;;;17.60;99.90;;;;;;5083123;28;20044;-53
2022/10/01 04:45:35;;;;;;;5.22;2.78;;;17.60;99.90;;;;;;5098710;28;20461;-54
2022/10/01 04:48:01;;;;;;;4.75;2.70;;;17.60;99.90;;;;;;5100648;28;20035;-54
2022/10/01 04:50:26;;;;;;;5.90;2.85;;;17.70;99.90;;;;;;5096134;28;20031;-54
2022/10/01 04:52:53;;;;;;;7.68;3.63;;;17.80;99.90;;;;;;5094941;28;20501;-53
2022/10/01 04:55:20;;;;;;;10.70;9.05;;;17.80;99.90;;;;;;5101342;28;20336;-51
2022/10/01 04:57:46;;;;;;;6.85;3.97;;;17.90;99.90;;;;;;5099466;28;20024;-52
2022/10/01 05:00:19;;;;;;;6.80;3.33;;;17.90;99.90;;;;;;5093843;28;20137;-54
2022/10/01 05:02:49;;;;;;;6.38;3.20;;;17.80;99.90;;;;;;5095215;28;20439;-52
2022/10/01 05:05:15;;;;;;;16.00;10.27;;;17.80;99.90;;;;;;5053420;28;20105;-52
2022/10/01 05:07:41;;;;;;;13.43;6.72;;;17.90;99.90;;;;;;5052264;28;21587;-51
2022/10/01 05:10:11;;;;;;;7.43;3.50;;;17.80;99.90;;;;;;5039215;28;20128;-54
2022/10/01 05:12:37;;;;;;;6.57;4.40;;;17.70;99.90;;;;;;5049627;28;20027;-52
2022/10/01 05:15:03;;;;;;;5.72;3.60;;;17.70;99.90;;;;;;5052915;28;20032;-53
2022/10/01 05:17:31;;;;;;;8.75;4.30;;;17.80;99.90;;;;;;5050782;28;20129;-51
2022/10/01 05:19:57;;;;;;;7.43;4.18;;;17.90;99.90;;;;;;5051754;28;20526;-52
2022/10/01 05:22:23;;;;;;;5.75;3.28;;;17.80;99.90;;;;;;5054761;28;20056;-51
2022/10/01 05:24:49;;;;;;;8.63;5.78;;;17.80;99.90;;;;;;5050376;28;20148;-55
2022/10/01 05:27:14;;;;;;;12.43;6.90;;;17.70;99.90;;;;;;5049913;28;20468;-55
2022/10/01 05:29:41;;;;;;;10.18;6.43;;;17.90;99.90;;;;;;5040793;28;20029;-54
2022/10/01 05:32:08;;;;;;;5.43;3.75;;;18.00;99.90;;;;;;5048410;28;20048;-53
2022/10/01 05:34:34;;;;;;;8.10;3.85;;;17.90;99.90;;;;;;5050962;28;20044;-53
2022/10/01 05:37:01;;;;;;;10.55;4.07;;;18.00;99.90;;;;;;5090480;28;20036;-55
2022/10/01 05:39:28;;;;;;;6.20;4.00;;;17.90;99.90;;;;;;5100215;28;20078;-52
2022/10/01 05:41:54;;;;;;;7.68;4.20;;;18.00;99.90;;;;;;5093555;28;20066;-51
2022/10/01 05:44:21;;;;;;;5.40;3.25;;;18.00;99.90;;;;;;5098530;28;20502;-51
2022/10/01 05:46:47;;;;;;;5.93;3.28;;;18.10;99.90;;;;;;5099817;28;20032;-51
2022/10/01 05:49:14;;;;;;;6.28;3.13;;;18.00;99.90;;;;;;5095416;28;20035;-52
2022/10/01 05:51:40;;;;;;;5.63;3.72;;;18.00;99.90;;;;;;5098409;28;20391;-50
2022/10/01 05:54:07;;;;;;;5.68;3.55;;;17.90;99.90;;;;;;5096032;28;20036;-53
2022/10/01 05:56:32;;;;;;;11.10;5.18;;;17.90;99.90;;;;;;5094606;28;20048;-52
2022/10/01 05:58:58;;;;;;;8.73;4.93;;;18.00;99.90;;;;;;5096848;28;20047;-52
2022/10/01 06:01:24;;;;;;;5.70;3.63;;;18.10;99.90;;;;;;5095383;28;20117;-53
2022/10/01 06:03:53;;;;;;;8.30;3.50;;;18.10;99.90;;;;;;5100648;28;20064;-52
2022/10/01 06:06:23;;;;;;;6.50;3.50;;;18.20;99.90;;;;;;5103534;28;20109;-51
2022/10/01 06:08:49;;;;;;;5.90;3.40;;;18.40;99.90;;;;;;5097195;28;20377;-51
2022/10/01 06:11:15;;;;;;;5.10;2.90;;;18.40;99.90;;;;;;5102961;28;20024;-51
2022/10/01 06:13:43;;;;;;;5.30;2.97;;;18.50;99.90;;;;;;5099551;28;20028;-52
2022/10/01 06:16:10;;;;;;;4.88;2.60;;;18.60;99.90;;;;;;5100778;28;20036;-52
2022/10/01 06:18:36;;;;;;;8.63;2.42;;;18.50;99.90;;;;;;5062665;28;20131;-52
2022/10/01 06:21:02;;;;;;;6.03;2.25;;;18.60;99.90;;;;;;5080042;28;20166;-53
2022/10/01 06:23:28;;;;;;;7.18;2.50;;;18.50;99.90;;;;;;5080488;28;20482;-52
2022/10/01 06:25:53;;;;;;;4.22;2.13;;;18.50;99.90;;;;;;5100553;28;20031;-51
2022/10/01 06:28:19;;;;;;;5.57;2.22;;;18.50;99.90;;;;;;5099451;28;20035;-50
2022/10/01 06:30:45;;;;;;;5.18;2.38;;;18.30;99.90;;;;;;5099041;28;20038;-51
2022/10/01 06:33:13;;;;;;;5.35;2.08;;;18.20;99.90;;;;;;5101532;28;20028;-51
2022/10/01 06:35:42;;;;;;;5.13;2.80;;;18.10;99.90;;;;;;5099470;28;20051;-52
2022/10/01 06:38:09;;;;;;;3.05;1.63;;;17.90;99.90;;;;;;5095183;28;20063;-51
2022/10/01 06:40:36;;;;;;;4.05;1.85;;;17.90;99.90;;;;;;5098371;28;20035;-52
2022/10/01 06:43:02;;;;;;;5.45;2.42;;;17.90;99.90;;;;;;5097856;28;20032;-54
2022/10/01 06:45:29;;;;;;;5.45;2.88;;;17.90;99.90;;;;;;5100037;28;20400;-51
2022/10/01 06:48:02;;;;;;;5.80;2.50;;;17.70;99.90;;;;;;5089407;28;20036;-53
2022/10/01 06:50:29;;;;;;;4.45;2.88;;;18.00;99.90;;;;;;5063094;28;20089;-51
2022/10/01 06:52:56;;;;;;;6.28;2.90;;;18.10;99.90;;;;;;5098304;28;20024;-51
2022/10/01 06:55:25;;;;;;;7.57;3.22;;;18.00;99.90;;;;;;5078697;28;20046;-51
2022/10/01 06:58:18;;;;;;;3.97;2.42;;;18.10;99.90;;;;;;5100453;28;20031;-52
2022/10/01 07:00:44;;;;;;;4.95;3.20;;;18.20;99.90;;;;;;5095668;28;20044;-50
2022/10/01 07:03:15;;;;;;;3.85;2.90;;;18.40;99.90;;;;;;5096319;28;20034;-53
2022/10/01 07:05:41;;;;;;;6.28;2.95;;;18.40;99.90;;;;;;5054982;28;20033;-52
2022/10/01 07:08:07;;;;;;;5.55;2.88;;;18.50;99.90;;;;;;5058787;28;20403;-50
2022/10/01 07:10:34;;;;;;;7.95;3.13;;;18.60;99.90;;;;;;5056889;28;20504;-52
2022/10/01 07:13:15;;;;;;;4.57;2.55;;;18.80;99.90;;;;;;5053950;28;20041;-52
2022/10/01 07:15:41;;;;;;;8.00;3.00;;;18.80;99.90;;;;;;5058957;28;20076;-52
2022/10/01 07:18:10;;;;;;;4.90;2.72;;;18.80;99.90;;;;;;5056220;28;20565;-52
2022/10/01 07:20:40;;;;;;;6.20;3.35;;;18.90;99.90;;;;;;5055345;28;20641;-54
2022/10/01 07:23:09;;;;;;;6.50;4.40;;;18.90;99.90;;;;;;5052392;28;20423;-54
2022/10/01 07:25:37;;;;;;;10.98;4.82;;;18.90;99.90;;;;;;5049505;28;20471;-52
2022/10/01 07:28:04;;;;;;;9.35;5.40;;;19.00;99.90;;;;;;5054415;28;20044;-53
2022/10/01 07:30:31;;;;;;;12.60;7.30;;;19.20;99.90;;;;;;5049816;28;20036;-54
2022/10/01 07:32:56;;;;;;;12.52;7.65;;;19.20;99.90;;;;;;5055762;28;20021;-52
2022/10/01 07:35:22;;;;;;;17.05;9.40;;;19.30;99.90;;;;;;5055621;28;20033;-51
2022/10/01 07:37:52;;;;;;;11.30;7.28;;;19.40;99.90;;;;;;5073926;28;20544;-52
2022/10/01 07:40:18;;;;;;;6.78;4.20;;;19.60;99.90;;;;;;5063652;28;20500;-52
2022/10/01 07:42:54;;;;;;;10.82;6.60;;;19.70;99.90;;;;;;5098126;28;20023;-54
2022/10/01 07:45:22;;;;;;;23.70;15.30;;;19.80;99.90;;;;;;5100642;28;20534;-52
2022/10/01 07:47:58;;;;;;;9.98;4.47;;;20.00;99.90;;;;;;5096906;28;20355;-52
2022/10/01 07:50:25;;;;;;;8.50;4.75;;;20.10;99.90;;;;;;5102065;28;20039;-50
2022/10/01 07:52:55;;;;;;;8.93;4.47;;;20.10;99.90;;;;;;5096613;28;20377;-51
2022/10/01 07:55:22;;;;;;;9.38;4.22;;;20.40;99.90;;;;;;5098449;28;20058;-53
2022/10/01 07:57:55;;;;;;;10.90;4.93;;;20.60;99.90;;;;;;5097462;28;20046;-51
2022/10/01 08:00:23;;;;;;;7.50;4.15;;;20.70;99.90;;;;;;5098072;28;20398;-52
2022/10/01 08:02:50;;;;;;;8.15;4.68;;;20.90;99.90;;;;;;5100664;28;20027;-52
2022/10/01 08:05:17;;;;;;;7.35;3.95;;;21.10;99.90;;;;;;5096087;28;20058;-52
2022/10/01 08:07:45;;;;;;;5.22;3.80;;;21.00;99.90;;;;;;5075646;28;20093;-52
2022/10/01 08:10:11;;;;;;;5.47;3.80;;;21.10;99.90;;;;;;5099122;28;20096;-50
2022/10/01 08:12:37;;;;;;;6.25;4.25;;;21.20;99.90;;;;;;5097336;28;20047;-54
2022/10/01 08:15:07;;;;;;;11.30;4.65;;;21.00;99.90;;;;;;5077193;28;20479;-55
2022/10/01 08:17:33;;;;;;;9.13;4.20;;;21.10;99.90;;;;;;5062200;28;20387;-52
2022/10/01 08:19:59;;;;;;;11.48;6.05;;;21.00;99.90;;;;;;5059625;28;20036;-52
2022/10/01 08:22:24;;;;;;;7.50;4.35;;;21.10;99.90;;;;;;5096365;28;20085;-52
2022/10/01 08:24:50;;;;;;;7.70;4.55;;;21.20;99.90;;;;;;5098217;28;20116;-52
2022/10/01 08:27:16;;;;;;;6.80;4.18;;;21.30;99.90;;;;;;5095894;28;20046;-53
2022/10/01 08:29:42;;;;;;;7.72;5.03;;;21.20;99.90;;;;;;5097738;28;20038;-51
2022/10/01 08:32:09;;;;;;;10.88;4.45;;;21.10;99.90;;;;;;5094955;28;20486;-54
2022/10/01 08:34:35;;;;;;;9.07;4.53;;;20.90;99.90;;;;;;5099009;28;20023;-53
2022/10/01 08:37:00;;;;;;;4.13;3.33;;;20.80;99.90;;;;;;5097348;28;20494;-53
2022/10/01 08:39:26;;;;;;;7.13;4.10;;;20.80;99.90;;;;;;5044268;28;20139;-52
2022/10/01 08:42:03;;;;;;;5.90;3.53;;;20.80;99.90;;;;;;5094786;28;20020;-52
2022/10/01 08:44:40;;;;;;;5.90;3.65;;;21.00;99.90;;;;;;5096721;28;20025;-53
2022/10/01 08:47:12;;;;;;;8.68;4.60;;;21.20;99.90;;;;;;5099501;28;20077;-52
2022/10/01 08:49:46;;;;;;;6.22;3.17;;;21.40;99.90;;;;;;5094138;28;20051;-52
2022/10/01 08:52:21;;;;;;;16.65;5.15;;;21.40;99.90;;;;;;5092228;28;20036;-53
2022/10/01 08:54:50;;;;;;;10.63;6.57;;;21.60;99.90;;;;;;5095589;28;20024;-50
2022/10/01 08:57:27;;;;;;;7.38;3.83;;;21.70;99.90;;;;;;5095568;28;20070;-51
2022/10/01 08:59:58;;;;;;;6.53;3.63;;;21.90;99.90;;;;;;5095223;28;20391;-51
2022/10/01 09:02:32;;;;;;;10.53;5.03;;;22.00;99.90;;;;;;5076506;28;20437;-54
2022/10/01 09:05:20;;;;;;;8.88;3.92;;;22.30;99.90;;;;;;5089137;28;20020;-53
2022/10/01 09:08:05;;;;;;;7.72;4.25;;;22.60;99.90;;;;;;5100698;28;20509;-54
2022/10/01 09:10:46;;;;;;;7.25;5.40;;;22.70;99.90;;;;;;5093766;28;20483;-51
2022/10/01 09:13:29;;;;;;;9.77;4.82;;;22.80;99.90;;;;;;5095208;28;20034;-53
2022/10/01 09:16:19;;;;;;;8.98;5.43;;;22.80;99.90;;;;;;5084991;28;20032;-51
2022/10/01 09:19:06;;;;;;;10.68;4.82;;;22.70;99.90;;;;;;5095143;28;20084;-49
2022/10/01 09:22:02;;;;;;;7.85;3.65;;;22.40;99.90;;;;;;5100122;28;20042;-49
2022/10/01 09:24:40;;;;;;;7.35;3.65;;;22.10;99.90;;;;;;5092185;28;20040;-49
2022/10/01 09:27:24;;;;;;;7.68;3.78;;;22.10;99.90;;;;;;5088912;28;20051;-50
2022/10/01 09:29:56;;;;;;;4.07;2.97;;;22.20;99.90;;;;;;5098687;28;20028;-49
2022/10/01 09:32:45;;;;;;;6.15;3.33;;;22.20;99.90;;;;;;5095007;28;20028;-49
2022/10/01 09:35:30;;;;;;;6.15;3.63;;;22.30;99.90;;;;;;5096451;28;20113;-49
2022/10/01 09:38:01;;;;;;;7.82;3.38;;;22.40;99.90;;;;;;5101694;28;20031;-49
2022/10/01 09:40:37;;;;;;;9.23;4.70;;;22.50;99.90;;;;;;5103330;28;20035;-49
2022/10/01 09:43:06;;;;;;;8.18;3.78;;;22.80;99.90;;;;;;5091798;28;20023;-49
2022/10/01 09:45:33;;;;;;;9.73;3.85;;;23.10;99.90;;;;;;5100319;28;20435;-49
2022/10/01 09:48:04;;;;;;;7.20;4.43;;;;;;;;;;5098844;28;20043;-49
2022/10/01 09:50:33;;;;;;;5.43;3.08;;;;;;;;;;5102193;28;20028;-49
2022/10/01 09:53:00;;;;;;;4.75;3.20;;;;;;;;;;5093208;28;20024;-50
2022/10/01 09:55:26;;;;;;;4.20;2.80;;;;;;;;;;5098734;28;20024;-50
2022/10/01 09:58:20;;;;;;;6.80;3.15;;;27.80;99.90;;;;;;5102270;28;20024;-50
2022/10/01 10:00:50;;;;;;;6.25;3.33;;;28.90;99.90;;;;;;5033165;28;20500;-50
2022/10/01 10:03:24;;;;;;;7.45;3.40;;;28.90;99.90;;;;;;5034137;28;20041;-50
2022/10/01 10:05:50;;;;;;;4.50;2.85;;;28.20;99.90;;;;;;5033187;28;20489;-49
2022/10/01 10:08:29;;;;;;;4.47;2.95;;;27.40;99.90;;;;;;5033440;28;20120;-50
2022/10/01 10:11:01;;;;;;;5.57;2.90;;;27.80;99.90;;;;;;5032460;28;20032;-50
2022/10/01 10:13:33;;;;;;;;;;;27.70;99.90;;;;;;5034041;28;20120;-49
2022/10/01 10:16:06;;;;;;;4.38;2.72;;;27.70;99.90;;;;;;5015130;28;19905;-50
2022/10/01 10:18:37;;;;;;;3.35;2.70;;;;;;;;;;5032815;28;20080;-50
2022/10/01 10:21:18;;;;;;;4.53;2.20;;;31.20;99.90;;;;;;5033601;28;20042;-49
2022/10/01 10:23:52;;;;;;;6.03;2.35;;;29.00;99.90;;;;;;5032936;28;20037;-50
2022/10/01 10:26:20;;;;;;;6.78;2.75;;;;;;;;;;5030820;28;20512;-50
2022/10/01 10:28:47;;;;;;;7.20;3.13;;;;;;;;;;5033037;28;20045;-50
2022/10/01 10:31:19;;;;;;;6.45;3.38;;;28.00;99.90;;;;;;5033301;28;20493;-51
2022/10/01 10:33:57;;;;;;;5.28;3.50;;;28.30;99.90;;;;;;5032875;28;20148;-49
2022/10/01 10:36:31;;;;;;;4.97;3.20;;;28.10;99.90;;;;;;5032480;28;20030;-51
2022/10/01 10:38:58;;;;;;;5.47;2.95;;;28.10;99.90;;;;;;5093084;28;20051;-50
2022/10/01 10:41:25;;;;;;;6.45;3.00;;;28.50;99.90;;;;;;5097350;28;20475;-50
2022/10/01 10:44:03;;;;;;;9.45;4.55;;;28.50;99.90;;;;;;5096497;28;20032;-49
2022/10/01 10:46:32;;;;;;;6.32;3.45;;;;;;;;;;5097060;28;20024;-50
2022/10/01 10:49:09;;;;;;;8.55;3.83;;;;;;;;;;5085738;28;20474;-50
2022/10/01 10:51:47;;;;;;;6.22;2.63;;;;;;;;;;5096336;28;20078;-49
2022/10/01 10:54:23;;;;;;;6.68;2.88;;;;;;;;;;5092307;28;20059;-50
2022/10/01 10:57:01;;;;;;;6.07;2.17;;;32.70;99.90;;;;;;5099807;28;20360;-50
2022/10/01 10:59:30;;;;;;;5.85;2.40;;;33.00;97.90;;;;;;5097398;28;20047;-50
2022/10/01 11:01:56;;;;;;;3.42;1.92;;;;;;;;;;5094950;28;20032;-51
2022/10/01 11:04:36;;;;;;;6.57;2.80;;;33.50;99.90;;;;;;5097862;28;20054;-50
2022/10/01 11:07:03;;;;;;;3.70;1.95;;;33.20;95.20;;;;;;5092216;28;20085;-50
2022/10/01 11:09:59;;;;;;;4.65;2.47;;;;;;;;;;5101534;28;20044;-50
2022/10/01 11:12:37;;;;;;;8.35;3.17;;;34.60;99.90;;;;;;5039934;28;20729;-50
2022/10/01 11:15:05;;;;;;;8.27;3.90;;;;;;;;;;5045959;28;20040;-50
2022/10/01 11:17:57;;;;;;;4.03;2.67;;;;;;;;;;5052083;28;20092;-50
2022/10/01 11:20:48;;;;;;;5.30;2.05;;;33.30;99.90;;;;;;5034932;28;20053;-50
2022/10/01 11:23:48;;;;;;;4.78;2.05;;;33.70;99.90;;;;;;5051863;28;20040;-50
2022/10/01 11:26:22;;;;;;;2.33;1.23;;;;;;;;;;5044617;28;20037;-51
2022/10/01 11:29:04;;;;;;;2.08;1.25;;;;;;;;;;5051681;28;20500;-50
2022/10/01 11:31:36;;;;;;;4.40;2.25;;;;;;;;;;5051500;28;20025;-50
2022/10/01 11:34:40;;;;;;;3.78;1.38;;;31.30;94.30;;;;;;5045302;28;20136;-50
2022/10/01 11:37:13;;;;;;;5.18;2.40;;;;;;;;;;5050876;28;20053;-50
2022/10/01 11:39:43;;;;;;;7.32;2.50;;;31.00;93.40;;;;;;5051201;28;20437;-50
2022/10/01 11:42:14;;;;;;;4.18;2.00;;;31.10;93.70;;;;;;5018744;28;20042;-49
2022/10/01 11:44:49;;;;;;;5.88;2.47;;;30.90;99.90;;;;;;5051223;28;20147;-50
2022/10/01 11:47:24;;;;;;;1.75;0.90;;;;;;;;;;5051643;28;20041;-51
2022/10/01 11:50:12;;;;;;;1.83;1.20;;;29.50;99.90;;;;;;5058025;28;20040;-50
2022/10/01 11:52:42;;;;;;;3.35;1.50;;;29.10;95.20;;;;;;5097181;28;20113;-50
2022/10/01 12:01:02;;;;;;;5.78;2.65;;;;;;;;;;5096284;28;20469;-50
2022/10/01 12:03:32;;;;;;;1.92;1.20;;;;;;;;;;5076806;28;20043;-50
2022/10/01 12:05:59;;;;;;;2.92;1.08;;;;;;;;;;5092499;28;20043;-49
2022/10/01 12:08:27;;;;;;;1.10;0.90;;;;;;;;;;5098182;28;20024;-50
2022/10/01 12:10:57;;;;;;;3.08;1.60;;;;;;;;;;5079913;28;20036;-50
2022/10/01 12:13:23;;;;;;;6.28;2.60;;;;;;;;;;5097906;28;20031;-50
2022/10/01 12:15:54;;;;;;;5.35;2.67;;;;;;;;;;5096819;28;20535;-49
2022/10/01 12:18:24;;;;;;;9.27;2.95;;;;;;;;;;5089860;28;20054;-50
2022/10/01 12:20:52;;;;;;;3.00;1.38;;;;;;;;;;5095051;28;20146;-50
2022/10/01 12:23:30;;;;;;;2.33;1.40;;;31.90;97.00;;;;;;5096155;28;20043;-50
2022/10/01 12:25:56;;;;;;;5.95;1.52;;;;;;;;;;5097470;28;20032;-50
2022/10/01 12:28:25;;;;;;;6.80;1.95;;;;;;;;;;5097039;28;20391;-50
2022/10/01 12:31:01;;;;;;;3.42;1.65;;;32.30;99.90;;;;;;5097676;28;20036;-50
2022/10/01 12:33:58;;;;;;;6.35;1.70;;;32.10;92.70;;;;;;5097002;28;20040;-50
2022/10/01 12:36:53;;;;;;;0.82;0.57;;;31.30;92.40;;;;;;5092011;28;20020;-50
2022/10/01 12:39:25;;;;;;;2.65;1.40;;;;;;;;;;5092286;28;20111;-49
2022/10/01 12:42:21;;;;;;;1.95;0.60;;;30.80;99.90;;;;;;5094264;28;20356;-50
2022/10/01 12:45:04;;;;;;;3.60;1.50;;;30.40;93.20;;;;;;5100001;28;20343;-51
2022/10/01 12:47:50;;;;;;;1.67;0.93;;;29.90;93.70;;;;;;5103124;28;20020;-50
2022/10/01 12:50:20;;;;;;;4.38;1.23;;;;;;;;;;5092765;28;20471;-50
2022/10/01 12:53:09;;;;;;;6.05;1.85;;;;;;;;;;5092510;28;20035;-50
2022/10/01 12:55:38;;;;;;;4.25;1.70;;;;;;;;;;5071248;28;20052;-50
2022/10/01 12:58:40;;;;;;;3.05;1.15;;;30.50;93.60;;;;;;5068141;28;20601;-49
2022/10/01 13:01:25;;;;;;;3.30;1.52;;;;;;;;;;5292802;22;20071;-56
2022/10/01 13:04:37;;;;;;;2.58;1.67;;;29.30;99.90;;;;;;5064254;28;20048;-54
2022/10/01 13:07:17;;;;;;;3.83;1.75;;;28.50;94.90;;;;;;5024859;28;20483;-56
2022/10/01 13:10:14;;;;;;;3.50;1.42;;;28.30;95.70;;;;;;5024087;28;20056;-56
2022/10/01 13:13:10;;;;;;;3.97;1.90;;;28.30;95.50;;;;;;5010804;28;20554;-51
2022/10/01 13:15:42;;;;;;;6.22;1.52;;;28.40;95.40;;;;;;4993086;28;20048;-48
2022/10/01 13:18:39;;;;;;;5.85;1.83;;;28.20;96.30;;;;;;5028890;28;20100;-49
2022/10/01 13:21:20;;;;;;;4.82;1.73;;;28.30;96.60;;;;;;5028745;28;20041;-50
2022/10/01 13:24:08;;;;;;;4.07;1.92;;;28.50;96.20;;;;;;5028704;28;20051;-50
2022/10/01 13:27:03;;;;;;;6.68;2.28;;;28.90;95.50;;;;;;5026755;28;20087;-52
2022/10/01 13:29:52;;;;;;;5.38;1.75;;;;;;;;;;4980031;28;20041;-54